Time;durP1;ratioP1;P1;durP2;ratioP2;P2;SDS_P1;SDS_P2;PMS_P1;PMS_P2;Temp;Humidity;BMP_temperature;BMP_pressure;BME280_temperature;BME280_humidity;BME280_pressure;Samples;Min_cycle;Max_cycle;Signal;HPM_P1;HPM_P2
2023/06/27 00:01:06;;;;;;;5.35;2.20;;;;;;;;;;5091524;28;20152;-74
2023/06/27 00:03:33;;;;;;;5.28;2.38;;;;;;;;;;5092014;28;20043;-74
2023/06/27 00:06:04;;;;;;;5.00;1.88;;;;;;;;;;5090302;28;20036;-77
2023/06/27 00:08:33;;;;;;;4.55;2.15;;;;;;;;;;5090699;28;20051;-76
2023/06/27 00:10:59;;;;;;;6.60;2.30;;;;;;;;;;5090338;28;20062;-76
2023/06/27 00:13:26;;;;;;;5.10;2.15;;;;;;;;;;5073442;28;20043;-76
2023/06/27 00:15:52;;;;;;;6.97;2.30;;;;;;;;;;5091706;28;20400;-77
2023/06/27 00:18:22;;;;;;;5.95;1.80;;;;;;;;;;5086487;28;20050;-76
2023/06/27 00:20:49;;;;;;;4.80;2.28;;;;;;;;;;5090418;28;20040;-77
2023/06/27 00:23:16;;;;;;;4.43;2.05;;;;;;;;;;5090101;28;20075;-74
2023/06/27 00:25:42;;;;;;;5.35;1.80;;;;;;;;;;5090680;28;20073;-74
2023/06/27 00:28:08;;;;;;;3.85;1.77;;;;;;;;;;5090621;28;20044;-75
2023/06/27 00:30:34;;;;;;;7.00;2.28;;;;;;;;;;5091654;28;20484;-75
2023/06/27 00:33:00;;;;;;;4.60;2.08;;;;;;;;;;5077463;28;20048;-75
2023/06/27 00:35:27;;;;;;;6.78;2.60;;;;;;;;;;5093684;28;20044;-77
2023/06/27 00:37:53;;;;;;;3.38;1.98;;;;;;;;;;5094335;28;20032;-77
2023/06/27 00:40:19;;;;;;;6.53;2.10;;;;;;;;;;5093984;28;20479;-77
2023/06/27 00:42:45;;;;;;;11.18;2.35;;;;;;;;;;5077321;28;20044;-77
2023/06/27 00:45:11;;;;;;;4.82;1.95;;;;;;;;;;5094003;28;20040;-77
2023/06/27 00:47:38;;;;;;;7.88;2.75;;;;;;;;;;5093925;28;20044;-75
2023/06/27 00:50:04;;;;;;;8.23;2.42;;;;;;;;;;5093693;28;20129;-75
2023/06/27 00:52:30;;;;;;;4.45;2.10;;;;;;;;;;5093341;28;20483;-75
2023/06/27 00:54:57;;;;;;;5.10;2.53;;;;;;;;;;5093900;28;20119;-75
2023/06/27 00:57:23;;;;;;;6.75;2.40;;;;;;;;;;5093235;28;20048;-75
2023/06/27 00:59:49;;;;;;;5.22;2.50;;;;;;;;;;5094930;28;20032;-75
2023/06/27 01:02:15;;;;;;;6.35;2.47;;;;;;;;;;5093405;28;20510;-75
2023/06/27 01:04:42;;;;;;;8.07;2.88;;;;;;;;;;5093815;28;20078;-75
2023/06/27 01:07:11;;;;;;;7.35;2.97;;;;;;;;;;5093585;28;20384;-75
2023/06/27 01:09:45;;;;;;;6.32;2.90;;;;;;;;;;5092720;28;20043;-77
2023/06/27 01:12:24;;;;;;;5.40;2.58;;;;;;;;;;5079454;28;20472;-77
2023/06/27 01:14:51;;;;;;;8.20;3.10;;;;;;;;;;5094833;28;20048;-75
2023/06/27 01:17:17;;;;;;;4.95;2.70;;;;;;;;;;5092853;28;20093;-77
2023/06/27 01:19:44;;;;;;;5.22;3.13;;;;;;;;;;5094684;28;20115;-77
2023/06/27 01:22:13;;;;;;;6.00;3.33;;;;;;;;;;5094582;28;20051;-77
2023/06/27 01:24:39;;;;;;;5.82;3.92;;;;;;;;;;5092875;28;20040;-77
2023/06/27 01:27:06;;;;;;;6.93;3.50;;;;;;;;;;5079079;28;20052;-77
2023/06/27 01:29:32;;;;;;;10.02;4.53;;;;;;;;;;5093998;28;20043;-77
2023/06/27 01:32:33;;;;;;;7.30;4.30;;;;;;;;;;5093035;28;20049;-77
2023/06/27 01:35:15;;;;;;;8.20;4.20;;;;;;;;;;5012232;28;20048;-77
2023/06/27 01:37:51;;;;;;;9.13;4.15;;;;;;;;;;5073927;28;20052;-77
2023/06/27 01:40:19;;;;;;;5.57;3.55;;;;;;;;;;5092989;28;20066;-77
2023/06/27 01:42:48;;;;;;;6.72;3.47;;;;;;;;;;5092481;28;20366;-75
2023/06/27 01:45:15;;;;;;;5.57;3.33;;;;;;;;;;5092837;28;20040;-75
2023/06/27 01:47:42;;;;;;;10.68;4.10;;;;;;;;;;5075584;28;20097;-77
2023/06/27 01:50:09;;;;;;;7.60;3.92;;;;;;;;;;5075921;28;20514;-77
2023/06/27 01:52:35;;;;;;;6.60;4.40;;;;;;;;;;5092190;28;20112;-75
2023/06/27 01:55:02;;;;;;;11.48;5.15;;;;;;;;;;5094212;28;20039;-75
2023/06/27 01:57:28;;;;;;;7.28;4.93;;;;;;;;;;5075135;28;20040;-75
2023/06/27 01:59:54;;;;;;;8.02;4.95;;;;;;;;;;5092890;28;20544;-75
2023/06/27 02:02:20;;;;;;;7.68;4.30;;;;;;;;;;5079631;28;20147;-77
2023/06/27 02:04:46;;;;;;;6.50;4.38;;;;;;;;;;5075345;28;20044;-77
2023/06/27 02:07:12;;;;;;;7.30;4.53;;;;;;;;;;5074404;28;20044;-77
2023/06/27 02:09:39;;;;;;;8.65;4.50;;;;;;;;;;5066172;28;20040;-78
2023/06/27 02:12:05;;;;;;;9.35;5.40;;;;;;;;;;5092440;28;20051;-77
2023/06/27 02:14:32;;;;;;;8.38;5.18;;;;;;;;;;5091747;28;20039;-75
2023/06/27 02:16:58;;;;;;;7.45;4.60;;;;;;;;;;5092087;28;20047;-75
2023/06/27 02:19:24;;;;;;;10.88;4.82;;;;;;;;;;5091697;28;20042;-75
2023/06/27 02:21:50;;;;;;;11.30;4.75;;;;;;;;;;5092483;28;20431;-75
2023/06/27 02:24:16;;;;;;;10.43;4.53;;;;;;;;;;5093588;28;20044;-75
2023/06/27 02:26:43;;;;;;;7.60;4.72;;;;;;;;;;5093125;28;20032;-77
2023/06/27 02:29:09;;;;;;;7.70;4.90;;;;;;;;;;5092344;28;20546;-77
2023/06/27 02:31:35;;;;;;;9.60;5.13;;;;;;;;;;5091461;28;20119;-77
2023/06/27 02:34:01;;;;;;;9.32;4.95;;;;;;;;;;5076307;28;20871;-77
2023/06/27 02:36:27;;;;;;;9.18;5.15;;;;;;;;;;5091259;28;20130;-78
2023/06/27 02:38:54;;;;;;;8.95;4.95;;;;;;;;;;5091822;28;20036;-77
2023/06/27 02:41:24;;;;;;;11.05;5.68;;;;;;;;;;5092148;28;20130;-77
2023/06/27 02:43:50;;;;;;;13.85;5.65;;;;;;;;;;5077487;28;20092;-77
2023/06/27 02:46:17;;;;;;;13.60;5.55;;;;;;;;;;5092130;28;20040;-77
2023/06/27 02:48:43;;;;;;;12.15;5.93;;;;;;;;;;5091110;28;20036;-77
2023/06/27 02:51:09;;;;;;;9.48;5.20;;;;;;;;;;5074789;28;20527;-77
2023/06/27 02:53:35;;;;;;;10.45;5.65;;;;;;;;;;5073693;28;20442;-78
2023/06/27 02:56:02;;;;;;;10.57;5.30;;;;;;;;;;5091670;28;20032;-77
2023/06/27 02:58:32;;;;;;;9.68;5.07;;;;;;;;;;5090860;28;20075;-77
2023/06/27 03:00:59;;;;;;;9.98;4.90;;;;;;;;;;5091573;28;20043;-77
2023/06/27 03:03:25;;;;;;;12.57;4.78;;;;;;;;;;5091540;28;20047;-77
2023/06/27 03:05:52;;;;;;;11.15;5.25;;;;;;;;;;5074472;28;20043;-77
2023/06/27 03:08:18;;;;;;;9.93;5.68;;;;;;;;;;5091244;28;20040;-77
2023/06/27 03:10:44;;;;;;;8.43;4.85;;;;;;;;;;5090705;28;20040;-77
2023/06/27 03:13:10;;;;;;;10.18;5.15;;;;;;;;;;5091289;28;20039;-77
2023/06/27 03:15:36;;;;;;;7.90;5.00;;;;;;;;;;5090429;28;20046;-78
2023/06/27 03:18:02;;;;;;;9.77;5.60;;;;;;;;;;5090942;28;20032;-77
2023/06/27 03:20:28;;;;;;;11.63;5.32;;;;;;;;;;5091415;28;20440;-77
2023/06/27 03:22:54;;;;;;;7.90;5.18;;;;;;;;;;5090836;28;20066;-77
2023/06/27 03:25:20;;;;;;;13.43;5.57;;;;;;;;;;5090982;28;20044;-77
2023/06/27 03:27:46;;;;;;;11.82;4.70;;;;;;;;;;5090862;28;20052;-77
2023/06/27 03:30:13;;;;;;;8.57;4.57;;;;;;;;;;5090588;28;20121;-78
2023/06/27 03:32:39;;;;;;;8.88;5.32;;;;;;;;;;5090706;28;20114;-77
2023/06/27 03:35:05;;;;;;;8.38;4.70;;;;;;;;;;5090845;28;20032;-78
2023/06/27 03:37:33;;;;;;;7.82;4.57;;;;;;;;;;5090981;28;20113;-78
2023/06/27 03:40:00;;;;;;;8.57;4.50;;;;;;;;;;5090822;28;20168;-78
2023/06/27 03:42:26;;;;;;;10.82;5.72;;;;;;;;;;5092260;28;20044;-78
2023/06/27 03:44:52;;;;;;;10.13;5.20;;;;;;;;;;5090346;28;20097;-78
2023/06/27 03:47:18;;;;;;;10.80;5.32;;;;;;;;;;5090970;28;20442;-77
2023/06/27 03:49:44;;;;;;;9.48;5.20;;;;;;;;;;5073477;28;20048;-78
2023/06/27 03:52:10;;;;;;;7.88;4.45;;;;;;;;;;5073961;28;20093;-77
2023/06/27 03:54:36;;;;;;;9.60;4.90;;;;;;;;;;5073598;28;20046;-77
2023/06/27 03:57:02;;;;;;;7.82;4.43;;;;;;;;;;5090849;28;20431;-78
2023/06/27 03:59:29;;;;;;;25.67;5.68;;;;;;;;;;5090569;28;20043;-78
2023/06/27 04:01:55;;;;;;;8.95;4.70;;;;;;;;;;5084942;28;20052;-78
2023/06/27 04:04:21;;;;;;;8.15;4.28;;;;;;;;;;5091508;28;20098;-77
2023/06/27 04:06:47;;;;;;;8.05;5.03;;;;;;;;;;5092964;28;20032;-77
2023/06/27 04:09:13;;;;;;;13.55;5.35;;;;;;;;;;5094537;28;20078;-78
2023/06/27 04:11:39;;;;;;;19.85;5.85;;;;;;;;;;5077423;28;20405;-75
2023/06/27 04:14:05;;;;;;;12.23;4.90;;;;;;;;;;5094488;28;20122;-75
2023/06/27 04:16:31;;;;;;;11.88;5.43;;;;;;;;;;5073959;28;20028;-76
2023/06/27 04:18:57;;;;;;;9.57;4.70;;;;;;;;;;5094343;28;20040;-76
2023/06/27 04:21:23;;;;;;;7.18;4.78;;;;;;;;;;5094311;28;20077;-76
2023/06/27 04:23:50;;;;;;;10.60;4.38;;;;;;;;;;5077587;28;20404;-76
2023/06/27 04:26:17;;;;;;;9.57;4.63;;;;;;;;;;5094602;28;20101;-76
2023/06/27 04:28:44;;;;;;;8.45;4.30;;;;;;;;;;5093924;28;20043;-76
2023/06/27 04:31:10;;;;;;;9.13;4.85;;;;;;;;;;5094451;28;20127;-76
2023/06/27 04:33:39;;;;;;;21.67;4.65;;;;;;;;;;5080534;28;20412;-76
2023/06/27 04:36:06;;;;;;;9.60;4.00;;;;;;;;;;5094495;28;20468;-77
2023/06/27 04:38:37;;;;;;;8.23;3.65;;;;;;;;;;5094071;28;20036;-76
2023/06/27 04:41:10;;;;;;;9.27;3.80;;;;;;;;;;5093966;28;20123;-77
2023/06/27 04:43:39;;;;;;;12.82;4.03;;;;;;;;;;5094324;28;20512;-76
2023/06/27 04:46:05;;;;;;;9.45;3.58;;;;;;;;;;5093792;28;20060;-76
2023/06/27 04:48:31;;;;;;;23.33;5.18;;;;;;;;;;5094144;28;20416;-77
2023/06/27 04:50:58;;;;;;;31.85;4.15;;;;;;;;;;5076614;28;20048;-77
2023/06/27 04:53:27;;;;;;;16.23;3.80;;;;;;;;;;5094091;28;20511;-78
2023/06/27 04:55:53;;;;;;;15.63;3.67;;;;;;;;;;5093581;28;20040;-77
2023/06/27 04:58:20;;;;;;;12.80;3.05;;;;;;;;;;5094119;28;20496;-77
2023/06/27 05:00:47;;;;;;;10.27;2.83;;;;;;;;;;5093522;28;20044;-76
2023/06/27 05:03:17;;;;;;;22.92;3.45;;;;;;;;;;5094078;28;20040;-76
2023/06/27 05:05:43;;;;;;;13.85;3.08;;;;;;;;;;5093609;28;20427;-76
2023/06/27 05:08:10;;;;;;;11.38;3.40;;;;;;;;;;5093705;28;20039;-76
2023/06/27 05:10:36;;;;;;;11.25;2.75;;;;;;;;;;5093613;28;20558;-77
2023/06/27 05:13:02;;;;;;;22.75;3.22;;;;;;;;;;5094643;28;20067;-77
2023/06/27 05:15:28;;;;;;;8.57;2.65;;;;;;;;;;5093626;28;20429;-77
2023/06/27 05:18:15;;;;;;;8.45;2.53;;;;;;;;;;5091989;28;20048;-76
2023/06/27 05:20:41;;;;;;;7.68;2.20;;;;;;;;;;5063185;28;20051;-77
2023/06/27 05:23:07;;;;;;;10.85;2.17;;;;;;;;;;5092870;28;20047;-76
2023/06/27 05:25:33;;;;;;;9.13;2.00;;;;;;;;;;5093464;28;20044;-77
2023/06/27 05:28:00;;;;;;;8.18;2.10;;;;;;;;;;5094099;28;20432;-77
2023/06/27 05:30:27;;;;;;;13.77;2.10;;;;;;;;;;5093029;28;20051;-77
2023/06/27 05:32:54;;;;;;;10.57;1.95;;;;;;;;;;5092782;28;20115;-77
2023/06/27 05:35:20;;;;;;;6.28;1.85;;;;;;;;;;5093400;28;20128;-76
2023/06/27 05:37:46;;;;;;;4.47;1.58;;;;;;;;;;5094286;28;20075;-76
2023/06/27 05:40:12;;;;;;;5.50;1.50;;;;;;;;;;5094279;28;20107;-77
2023/06/27 05:42:38;;;;;;;5.57;1.70;;;;;;;;;;5076255;28;20162;-78
2023/06/27 05:45:05;;;;;;;4.28;1.60;;;;;;;;;;5092620;28;20078;-78
2023/06/27 05:47:31;;;;;;;6.75;1.27;;;;;;;;;;5092937;28;20043;-77
2023/06/27 05:49:57;;;;;;;6.75;1.30;;;;;;;;;;5075449;28;20127;-78
2023/06/27 05:52:24;;;;;;;5.82;1.40;;;;;;;;;;5093867;28;20047;-76
2023/06/27 05:54:50;;;;;;;6.70;1.20;;;;;;;;;;5092463;28;20044;-76
2023/06/27 05:57:18;;;;;;;5.97;1.10;;;;;;;;;;5092865;28;20587;-77
2023/06/27 05:59:44;;;;;;;6.68;1.50;;;;;;;;;;5094078;28;20036;-77
2023/06/27 06:02:10;;;;;;;5.53;1.25;;;;;;;;;;5092325;28;20504;-76
2023/06/27 06:04:36;;;;;;;9.70;2.20;;;;;;;;;;5076130;28;20424;-78
2023/06/27 06:07:03;;;;;;;8.50;1.13;;;;;;;;;;5092008;28;20040;-77
2023/06/27 06:09:30;;;;;;;4.00;1.00;;;;;;;;;;5092510;28;20052;-77
2023/06/27 06:11:56;;;;;;;10.30;1.20;;;;;;;;;;5092053;28;20047;-77
2023/06/27 06:14:22;;;;;;;4.45;1.00;;;;;;;;;;5092297;28;20119;-77
2023/06/27 06:16:48;;;;;;;4.50;1.27;;;;;;;;;;5084494;28;20086;-77
2023/06/27 06:19:14;;;;;;;8.93;1.77;;;;;;;;;;5085882;28;20520;-77
2023/06/27 06:21:40;;;;;;;10.60;1.20;;;;;;;;;;5092009;28;20105;-77
2023/06/27 06:24:10;;;;;;;7.55;1.10;;;;;;;;;;5092158;28;20488;-77
2023/06/27 06:26:36;;;;;;;4.82;0.98;;;;;;;;;;5092242;28;20119;-77
2023/06/27 06:29:03;;;;;;;4.65;1.05;;;;;;;;;;5091493;28;20040;-76
2023/06/27 06:31:29;;;;;;;21.13;1.88;;;;;;;;;;5075135;28;20040;-74
2023/06/27 06:33:56;;;;;;;4.10;1.00;;;;;;;;;;5091660;28;20089;-75
2023/06/27 06:36:22;;;;;;;66.57;4.82;;;;;;;;;;5092155;28;20142;-78
2023/06/27 06:38:50;;;;;;;5.90;1.00;;;;;;;;;;5092178;28;20325;-77
2023/06/27 06:41:18;;;;;;;7.30;1.30;;;;;;;;;;5091659;28;20101;-77
2023/06/27 06:43:44;;;;;;;5.35;1.08;;;;;;;;;;5093114;28;20036;-77
2023/06/27 06:46:10;;;;;;;2.78;0.77;;;;;;;;;;5092680;28;20186;-78
2023/06/27 06:48:36;;;;;;;18.00;1.38;;;;;;;;;;5074905;28;20053;-77
2023/06/27 06:51:02;;;;;;;6.00;1.15;;;;;;;;;;5091065;28;20080;-78
2023/06/27 06:53:29;;;;;;;9.85;1.23;;;;;;;;;;5091566;28;20068;-76
2023/06/27 06:55:55;;;;;;;7.35;1.15;;;;;;;;;;5091681;28;20050;-76
2023/06/27 06:58:21;;;;;;;7.28;1.17;;;;;;;;;;5092926;28;20043;-77
2023/06/27 07:00:47;;;;;;;12.95;1.58;;;;;;;;;;5091394;28;20047;-77
2023/06/27 07:03:14;;;;;;;7.68;1.13;;;;;;;;;;5091265;28;20493;-77
2023/06/27 07:05:43;;;;;;;4.13;0.95;;;;;;;;;;5091385;28;20036;-76
2023/06/27 07:08:09;;;;;;;3.10;1.00;;;;;;;;;;5092362;28;20047;-76
2023/06/27 07:10:35;;;;;;;9.38;1.15;;;;;;;;;;5074585;28;20508;-76
2023/06/27 07:13:01;;;;;;;9.90;1.23;;;;;;;;;;5090931;28;20043;-77
2023/06/27 07:15:28;;;;;;;5.75;1.20;;;;;;;;;;5091333;28;20051;-77
2023/06/27 07:17:55;;;;;;;5.88;0.90;;;;;;;;;;5091300;28;20113;-77
2023/06/27 07:20:22;;;;;;;5.15;1.20;;;;;;;;;;5092424;28;20089;-74
2023/06/27 07:22:48;;;;;;;4.75;0.95;;;;;;;;;;5074444;28;20051;-74
2023/06/27 07:25:14;;;;;;;4.38;0.95;;;;;;;;;;5091156;28;20040;-74
2023/06/27 07:27:40;;;;;;;6.13;0.90;;;;;;;;;;5092279;28;20141;-73
2023/06/27 07:30:07;;;;;;;37.53;2.88;;;;;;;;;;5090571;28;20127;-73
2023/06/27 07:32:33;;;;;;;5.35;1.15;;;;;;;;;;5091137;28;20541;-74
2023/06/27 07:34:59;;;;;;;17.80;1.67;;;;;;;;;;5074413;28;20500;-73
2023/06/27 07:37:25;;;;;;;13.85;1.60;;;;;;;;;;5073947;28;20086;-74
2023/06/27 07:39:51;;;;;;;5.55;1.00;;;;;;;;;;5073487;28;20048;-73
2023/06/27 07:42:17;;;;;;;2.50;0.80;;;;;;;;;;5090554;28;20042;-74
2023/06/27 07:44:44;;;;;;;7.95;0.90;;;;;;;;;;5074213;28;20072;-74
2023/06/27 07:47:10;;;;;;;6.85;0.95;;;;;;;;;;5090292;28;20039;-74
2023/06/27 07:49:37;;;;;;;5.47;1.10;;;;;;;;;;5090908;28;20492;-74
2023/06/27 07:52:07;;;;;;;5.57;0.80;;;;;;;;;;5090389;28;20378;-74
2023/06/27 07:54:33;;;;;;;7.70;1.17;;;;;;;;;;5090886;28;20044;-75
2023/06/27 07:56:59;;;;;;;8.70;1.20;;;;;;;;;;5090731;28;20032;-74
2023/06/27 07:59:25;;;;;;;4.00;0.90;;;;;;;;;;5073515;28;20119;-74
2023/06/27 08:01:52;;;;;;;8.80;1.10;;;;;;;;;;5090599;28;20124;-75
2023/06/27 08:04:18;;;;;;;6.82;0.98;;;;;;;;;;5090271;28;20097;-74
2023/06/27 08:06:44;;;;;;;4.38;0.85;;;;;;;;;;5091063;28;20396;-74
2023/06/27 08:09:10;;;;;;;4.18;0.95;;;;;;;;;;5090351;28;20578;-75
2023/06/27 08:11:36;;;;;;;9.48;1.13;;;;;;;;;;5090497;28;20102;-74
2023/06/27 08:14:02;;;;;;;4.25;1.10;;;;;;;;;;5091648;28;20079;-74
2023/06/27 08:16:28;;;;;;;4.50;1.20;;;;;;;;;;5073308;28;20035;-73
2023/06/27 08:18:54;;;;;;;6.25;1.20;;;;;;;;;;5090859;28;20050;-73
2023/06/27 08:21:20;;;;;;;8.75;1.08;;;;;;;;;;5090242;28;20407;-74
2023/06/27 08:23:46;;;;;;;10.02;1.55;;;;;;;;;;5090833;28;20040;-74
2023/06/27 08:26:17;;;;;;;4.00;0.90;;;;;;;;;;5090310;28;20436;-74
2023/06/27 08:28:43;;;;;;;4.05;1.08;;;;;;;;;;5090311;28;20044;-74
2023/06/27 08:31:10;;;;;;;8.88;1.20;;;;;;;;;;5089954;28;20089;-74
2023/06/27 08:33:36;;;;;;;4.63;0.93;;;;;;;;;;5076543;28;20025;-73
2023/06/27 08:36:02;;;;;;;4.63;0.98;;;;;;;;;;5090810;28;20527;-73
2023/06/27 08:38:28;;;;;;;6.00;1.25;;;;;;;;;;5073438;28;20473;-74
2023/06/27 08:40:55;;;;;;;6.47;1.10;;;;;;;;;;5073413;28;20066;-74
2023/06/27 08:43:21;;;;;;;5.03;1.17;;;;;;;;;;5072847;28;20040;-74
2023/06/27 08:45:49;;;;;;;10.40;1.20;;;;;;;;;;5073724;28;20039;-73
2023/06/27 08:48:16;;;;;;;4.10;1.10;;;;;;;;;;5089855;28;20047;-74
2023/06/27 08:50:43;;;;;;;6.90;0.90;;;;;;;;;;5090699;28;20124;-76
2023/06/27 08:53:17;;;;;;;14.30;1.30;;;;;;;;;;5094068;28;20054;-76
2023/06/27 08:55:52;;;;;;;5.13;1.10;;;;;;;;;;5094066;28;20039;-75
2023/06/27 08:58:21;;;;;;;3.40;0.80;;;;;;;;;;5093564;28;20043;-75
2023/06/27 09:00:47;;;;;;;7.60;1.10;;;;;;;;;;5093628;28;20040;-76
2023/06/27 09:03:14;;;;;;;5.43;0.90;;;;;;;;;;5093675;28;20052;-76
2023/06/27 09:05:41;;;;;;;4.70;1.10;;;;;;;;;;5093665;28;20078;-75
2023/06/27 09:08:07;;;;;;;13.27;1.40;;;;;;;;;;5077131;28;20400;-75
2023/06/27 09:10:34;;;;;;;3.15;1.10;;;;;;;;;;5093126;28;20044;-77
2023/06/27 09:13:00;;;;;;;8.88;1.25;;;;;;;;;;5077224;28;20520;-74
2023/06/27 09:15:26;;;;;;;4.57;1.08;;;;;;;;;;5076167;28;20044;-75
2023/06/27 09:17:53;;;;;;;6.25;1.10;;;;;;;;;;5094721;28;20032;-76
2023/06/27 09:20:19;;;;;;;7.70;1.08;;;;;;;;;;5093074;28;20040;-75
2023/06/27 09:22:46;;;;;;;18.02;1.50;;;;;;;;;;5093270;28;20047;-76
2023/06/27 09:25:24;;;;;;;6.10;1.63;;;;;;;;;;5094682;28;20040;-75
2023/06/27 09:27:50;;;;;;;5.63;0.90;;;;;;;;;;5093231;28;20122;-76
2023/06/27 09:30:16;;;;;;;2.58;0.80;;;;;;;;;;5076246;28;20499;-76
2023/06/27 09:32:53;;;;;;;9.02;1.13;;;;;;;;;;5093183;28;20044;-76
2023/06/27 09:35:20;;;;;;;15.93;1.45;;;;;;;;;;5092663;28;20039;-74
2023/06/27 09:37:46;;;;;;;5.35;1.25;;;;;;;;;;5093293;28;20036;-75
2023/06/27 09:40:19;;;;;;;8.50;1.40;;;;;;;;;;5093220;28;20445;-74
2023/06/27 09:42:50;;;;;;;6.97;1.20;;;;;;;;;;5093104;28;20085;-75
2023/06/27 09:45:17;;;;;;;5.85;1.00;;;;;;;;;;5092603;28;20044;-74
2023/06/27 09:47:43;;;;;;;4.55;1.00;;;;;;;;;;5093059;28;20047;-75
2023/06/27 09:50:09;;;;;;;10.52;1.25;;;;;;;;;;5092485;28;20135;-75
2023/06/27 09:52:35;;;;;;;15.88;2.25;;;;;;;;;;5075693;28;20076;-75
2023/06/27 09:55:02;;;;;;;9.68;1.45;;;;;;;;;;5075762;28;20040;-75
2023/06/27 09:57:30;;;;;;;9.15;1.10;;;;;;;;;;5092707;28;20054;-75
2023/06/27 10:00:00;;;;;;;5.78;1.23;;;;;;;;;;5093220;28;20473;-75
2023/06/27 10:02:28;;;;;;;8.32;1.30;;;;;;;;;;5091656;28;20043;-74
2023/06/27 10:04:54;;;;;;;3.28;1.00;;;;;;;;;;5092520;28;20048;-74
2023/06/27 10:07:21;;;;;;;8.52;1.08;;;;;;;;;;5075628;28;20493;-75
2023/06/27 10:09:47;;;;;;;9.75;1.10;;;;;;;;;;5075561;28;20036;-76
2023/06/27 10:12:15;;;;;;;14.85;1.50;;;;;;;;;;5092311;28;20036;-75
2023/06/27 10:14:42;;;;;;;13.57;1.45;;;;;;;;;;5092050;28;20074;-75
2023/06/27 10:17:10;;;;;;;13.57;1.58;;;;;;;;;;5092267;28;20082;-75
2023/06/27 10:19:37;;;;;;;4.72;1.10;;;;;;;;;;5074889;28;20040;-74
2023/06/27 10:22:03;;;;;;;11.75;1.15;;;;;;;;;;5092297;28;20043;-75
2023/06/27 10:24:30;;;;;;;8.60;1.20;;;;;;;;;;5074892;28;20044;-74
2023/06/27 10:26:57;;;;;;;5.32;0.88;;;;;;;;;;5092248;28;20176;-74
2023/06/27 10:29:23;;;;;;;8.98;1.17;;;;;;;;;;5092067;28;20373;-75
2023/06/27 10:31:50;;;;;;;5.68;1.40;;;;;;;;;;5075039;28;20503;-75
2023/06/27 10:34:20;;;;;;;9.15;1.17;;;;;;;;;;5092441;28;20508;-75
2023/06/27 10:36:51;;;;;;;4.97;1.08;;;;;;;;;;5091904;28;20067;-75
2023/06/27 10:39:31;;;;;;;6.50;1.00;;;;;;;;;;5092390;28;20043;-74
2023/06/27 10:42:01;;;;;;;9.13;1.10;;;;;;;;;;5091930;28;20447;-75
2023/06/27 10:44:28;;;;;;;8.57;1.00;;;;;;;;;;5091750;28;20122;-74
2023/06/27 10:47:13;;;;;;;3.63;0.95;;;;;;;;;;5091708;28;20093;-75
2023/06/27 10:49:39;;;;;;;12.33;1.70;;;;;;;;;;5092531;28;20054;-75
2023/06/27 10:52:05;;;;;;;6.80;0.93;;;;;;;;;;5091437;28;20313;-74
2023/06/27 10:54:31;;;;;;;9.80;1.30;;;;;;;;;;5074602;28;20160;-74
2023/06/27 10:56:59;;;;;;;5.88;1.35;;;;;;;;;;5091480;28;20075;-74
2023/06/27 10:59:25;;;;;;;4.85;1.10;;;;;;;;;;5091361;28;20117;-74
2023/06/27 11:02:00;;;;;;;5.78;1.33;;;;;;;;;;5091687;28;20098;-74
2023/06/27 11:04:40;;;;;;;5.03;0.88;;;;;;;;;;5091398;28;20036;-75
2023/06/27 11:07:12;;;;;;;6.38;1.15;;;;;;;;;;5091418;28;20047;-74
2023/06/27 11:09:39;;;;;;;23.35;2.13;;;;;;;;;;5092484;28;20046;-73
2023/06/27 11:12:10;;;;;;;9.15;1.40;;;;;;;;;;5074231;28;20043;-71
2023/06/27 11:14:38;;;;;;;5.45;1.40;;;;;;;;;;5090209;28;20036;-74
2023/06/27 11:17:04;;;;;;;5.55;1.20;;;;;;;;;;5091187;28;20058;-73
2023/06/27 11:19:32;;;;;;;9.43;1.23;;;;;;;;;;5090997;28;20480;-74
2023/06/27 11:21:59;;;;;;;8.73;1.20;;;;;;;;;;5091350;28;20117;-74
2023/06/27 11:24:26;;;;;;;5.68;1.02;;;;;;;;;;5074360;28;20153;-73
2023/06/27 11:26:52;;;;;;;6.10;1.05;;;;;;;;;;5092413;28;20044;-72
2023/06/27 11:29:18;;;;;;;12.18;1.25;;;;;;;;;;5091452;28;20048;-73
2023/06/27 11:31:44;;;;;;;6.88;0.95;;;;;;;;;;5090491;28;20051;-74
2023/06/27 11:34:11;;;;;;;6.20;1.10;;;;;;;;;;5091319;28;20487;-74
2023/06/27 11:36:38;;;;;;;2.63;0.88;;;;;;;;;;5074074;28;20501;-73
2023/06/27 11:39:04;;;;;;;6.65;1.17;;;;;;;;;;5091122;28;20043;-73
2023/06/27 11:41:31;;;;;;;8.60;1.17;;;;;;;;;;5090459;28;20524;-75
2023/06/27 11:43:57;;;;;;;7.05;1.35;;;;;;;;;;5074329;28;20044;-74
2023/06/27 11:46:23;;;;;;;5.20;1.05;;;;;;;;;;5091198;28;20512;-74
2023/06/27 11:48:49;;;;;;;21.58;1.63;;;;;;;;;;5090722;28;20537;-75
2023/06/27 11:51:15;;;;;;;16.40;1.80;;;;;;;;;;5090732;28;20450;-75
2023/06/27 11:53:49;;;;;;;7.15;1.10;;;;;;;;;;5090384;28;20071;-74
2023/06/27 11:56:15;;;;;;;10.05;1.20;;;;;;;;;;5091053;28;20532;-74
2023/06/27 11:58:41;;;;;;;17.15;1.48;;;;;;;;;;5090364;28;20028;-74
2023/06/27 12:01:14;;;;;;;8.60;1.10;;;;;;;;;;5090715;28;20117;-73
2023/06/27 12:03:41;;;;;;;26.92;1.92;;;;;;;;;;5091357;28;20032;-72
2023/06/27 12:06:23;;;;;;;7.78;0.93;;;;;;;;;;5074138;28;20515;-72
2023/06/27 12:08:49;;;;;;;5.65;0.93;;;;;;;;;;5073487;28;20043;-74
2023/06/27 12:11:15;;;;;;;24.35;1.77;;;;;;;;;;5090524;28;20036;-74
2023/06/27 12:13:41;;;;;;;15.10;1.55;;;;;;;;;;5090195;28;20036;-73
2023/06/27 12:16:21;;;;;;;9.80;1.48;;;;;;;;;;5090795;28;20500;-72
2023/06/27 12:18:47;;;;;;;4.88;1.05;;;;;;;;;;5090692;28;20443;-74
2023/06/27 12:21:14;;;;;;;10.32;1.08;;;;;;;;;;5073654;28;20036;-74
2023/06/27 12:23:40;;;;;;;33.50;2.78;;;;;;;;;;5090090;28;20111;-72
2023/06/27 12:26:06;;;;;;;12.98;1.00;;;;;;;;;;5091348;28;20048;-73
2023/06/27 12:28:32;;;;;;;12.48;1.10;;;;;;;;;;5094514;28;20415;-73
2023/06/27 12:30:58;;;;;;;5.25;1.10;;;;;;;;;;5094221;28;20370;-72
2023/06/27 12:33:25;;;;;;;4.97;1.02;;;;;;;;;;5077250;28;20039;-72
2023/06/27 12:35:51;;;;;;;12.88;1.20;;;;;;;;;;5077415;28;20393;-73
2023/06/27 12:38:17;;;;;;;7.93;1.80;;;;;;;;;;5095391;28;20074;-72
2023/06/27 12:40:43;;;;;;;9.20;1.25;;;;;;;;;;5095232;28;20054;-72
2023/06/27 12:43:09;;;;;;;16.35;1.50;;;;;;;;;;5093851;28;20089;-73
2023/06/27 12:45:36;;;;;;;10.30;1.67;;;;;;;;;;5077778;28;20046;-73
2023/06/27 12:48:02;;;;;;;4.55;1.40;;;;;;;;;;5094414;28;20052;-73
2023/06/27 12:50:28;;;;;;;11.25;1.10;;;;;;;;;;5095155;28;20048;-73
2023/06/27 12:52:54;;;;;;;17.33;1.50;;;;;;;;;;5093645;28;20056;-74
2023/06/27 12:55:20;;;;;;;15.18;1.73;;;;;;;;;;5093936;28;20070;-73
2023/06/27 12:57:48;;;;;;;9.82;1.38;;;;;;;;;;5093380;28;20032;-74
2023/06/27 13:00:19;;;;;;;15.13;1.30;;;;;;;;;;5095163;28;20043;-76
2023/06/27 13:02:46;;;;;;;12.52;1.70;;;;;;;;;;5093447;28;20042;-76
2023/06/27 13:05:13;;;;;;;7.93;1.10;;;;;;;;;;5094012;28;20085;-75
2023/06/27 13:07:40;;;;;;;9.77;1.60;;;;;;;;;;5093373;28;20044;-75
2023/06/27 13:10:06;;;;;;;8.40;1.33;;;;;;;;;;5093584;28;20047;-75
2023/06/27 13:12:32;;;;;;;7.93;1.33;;;;;;;;;;5093354;28;20118;-76
2023/06/27 13:14:58;;;;;;;14.55;1.40;;;;;;;;;;5093262;28;20044;-74
2023/06/27 13:17:24;;;;;;;11.98;1.05;;;;;;;;;;5093523;28;20043;-74
2023/06/27 13:19:51;;;;;;;22.45;1.88;;;;;;;;;;5076190;28;20047;-74
2023/06/27 13:22:17;;;;;;;8.55;1.42;;;;;;;;;;5093595;28;20066;-75
2023/06/27 13:24:44;;;;;;;7.53;1.50;;;;;;;;;;5092744;28;20051;-75
2023/06/27 13:27:10;;;;;;;12.02;1.70;;;;;;;;;;5093435;28;20131;-75
2023/06/27 13:29:36;;;;;;;7.68;1.27;;;;;;;;;;5094452;28;20105;-74
2023/06/27 13:32:02;;;;;;;6.10;1.60;;;;;;;;;;5092875;28;20048;-75
2023/06/27 13:34:29;;;;;;;23.33;2.10;;;;;;;;;;5093114;28;20083;-74
2023/06/27 13:36:55;;;;;;;11.82;1.50;;;;;;;;;;5093234;28;20063;-76
2023/06/27 13:39:22;;;;;;;31.10;2.53;;;;;;;;;;5075507;28;20047;-76
2023/06/27 13:41:48;;;;;;;16.02;1.98;;;;;;;;;;5075915;28;20039;-74
2023/06/27 13:44:14;;;;;;;8.02;1.30;;;;;;;;;;5093271;28;20075;-75
2023/06/27 13:46:40;;;;;;;5.47;0.90;;;;;;;;;;5076154;28;20055;-76
2023/06/27 13:49:08;;;;;;;10.55;1.30;;;;;;;;;;5092908;28;20043;-75
2023/06/27 13:51:35;;;;;;;8.30;1.50;;;;;;;;;;5094004;28;20067;-73
2023/06/27 13:54:01;;;;;;;10.32;1.52;;;;;;;;;;5078139;28;20145;-75
2023/06/27 13:56:28;;;;;;;10.13;1.45;;;;;;;;;;5093222;28;20548;-75
2023/06/27 13:58:54;;;;;;;15.75;1.75;;;;;;;;;;5092265;28;20055;-74
2023/06/27 14:01:20;;;;;;;12.60;1.50;;;;;;;;;;5075901;28;20044;-73
2023/06/27 14:03:47;;;;;;;25.65;2.88;;;;;;;;;;5092063;28;20120;-73
2023/06/27 14:06:14;;;;;;;23.05;2.03;;;;;;;;;;5092705;28;20044;-74
2023/06/27 14:08:40;;;;;;;12.50;1.55;;;;;;;;;;5093621;28;20129;-73
2023/06/27 14:11:06;;;;;;;14.63;1.50;;;;;;;;;;5093425;28;20055;-73
2023/06/27 14:13:32;;;;;;;11.15;1.33;;;;;;;;;;5092338;28;20044;-74
2023/06/27 14:15:58;;;;;;;7.47;1.13;;;;;;;;;;5091877;28;20035;-74
2023/06/27 14:18:24;;;;;;;6.15;1.85;;;;;;;;;;5075885;28;20499;-75
2023/06/27 14:20:50;;;;;;;9.13;1.33;;;;;;;;;;5075234;28;20050;-73
2023/06/27 14:23:17;;;;;;;6.05;1.20;;;;;;;;;;5058595;28;20040;-73
2023/06/27 14:25:43;;;;;;;9.02;1.50;;;;;;;;;;5092293;28;20047;-74
2023/06/27 14:28:09;;;;;;;8.70;1.20;;;;;;;;;;5091772;28;20089;-74
2023/06/27 14:30:35;;;;;;;11.27;1.30;;;;;;;;;;5092363;28;20036;-73
2023/06/27 14:33:01;;;;;;;5.00;1.10;;;;;;;;;;5075185;28;20374;-74
2023/06/27 14:35:27;;;;;;;7.50;1.20;;;;;;;;;;5092205;28;20032;-74
2023/06/27 14:37:53;;;;;;;4.72;1.10;;;;;;;;;;5074816;28;20042;-75